• Join FlightAware (Why Join?)
  • Login
  • US Flag 
08:18PM EST


 

Airport Tracker/Info


-or-


 

Live Flight TrackerFlight Track Log ✈ USC110 ✈ 01-May-2013 ✈ KCLT - KLCK

Flight Track Log - Related Links

Times and Time Zones

All times are in EDT time to prevent confusion due to time zone crossing. See the USC110 flight status page for this flight to view local times or setup timezone preferences in your user account.

Time Position Orientation Groundspeed Altitude Reporting Facility
EDT Latitude Longitude Course Direction KTS MPH feet Rate Location/Type
07:37AM 35.2169 -80.9831 264° West 150 173 2,600  Level Atlanta Center
07:38AM 35.2100 -81.0367 261° West 163 188 3,800 660 Climbing Atlanta Center
07:39AM 35.2053 -81.0953 264° West 180 207 4,000 360 Climbing Atlanta Center
07:39AM 35.2253 -81.1481 295° West 176 203 4,500 600 Climbing Atlanta Center
07:41AM 35.2633 -81.1747 330° Northwest 143 165 5,300 660 Climbing Atlanta Center
07:42AM 35.2992 -81.1911 340° North 143 165 5,900 720 Climbing Atlanta Center
07:43AM 35.3433 -81.2075 343° North 147 169 6,800 720 Climbing Atlanta Center
07:44AM 35.3833 -81.2214 344° North 150 173 7,500 600 Climbing Atlanta Center
07:44AM 35.4067 -81.2308 342° North 157 181 7,900 240 Climbing Atlanta Center
07:45AM 35.4550 -81.2469 345° North 157 181 8,000  Climbing Atlanta Center
07:46AM 35.5011 -81.2633 344° North 164 189 8,000  Level Atlanta Center
07:47AM 35.5453 -81.2797 343° North 169 194 8,000  Level Atlanta Center
07:48AM 35.5917 -81.2986 342° North 169 194 8,000  Level Atlanta Center
07:49AM 35.6336 -81.3125 345° North 169 194 8,000  Level Atlanta Center
07:50AM 35.6758 -81.3289 342° North 164 189 8,000  Level Atlanta Center
07:51AM 35.7200 -81.3428 346° North 164 189 8,000  Level Atlanta Center
07:52AM 35.7683 -81.3592 345° North 169 194 8,000  Level Atlanta Center
07:53AM 35.8125 -81.3781 341° North 169 194 8,000  Level Atlanta Center
07:54AM 35.8608 -81.3944 345° North 169 194 8,000  Level Atlanta Center
07:55AM 35.9028 -81.4111 342° North 164 189 8,000  Level Atlanta Center
07:56AM 35.9469 -81.4250 346° North 164 189 8,000  Level Atlanta Center
07:57AM 35.9892 -81.4417 342° North 164 189 8,000  Level Atlanta Center
07:58AM 36.0333 -81.4583 343° North 164 189 8,000  Level Atlanta Center
07:59AM 36.0775 -81.4747 343° North 164 189 8,000  Level Atlanta Center
08:00AM 36.1214 -81.4889 345° North 164 189 8,000  Level Atlanta Center
08:01AM 36.1656 -81.5053 343° North 164 189 8,000  Level Atlanta Center
08:02AM 36.2097 -81.5247 340° North 164 189 8,000  Level Atlanta Center
08:03AM 36.2497 -81.5361 347° North 164 189 8,000  Level Atlanta Center
08:04AM 36.2958 -81.5528 344° North 164 189 8,000  Level Atlanta Center
08:05AM 36.3381 -81.5694 342° North 164 189 8,000  Level Atlanta Center
08:06AM 36.3819 -81.5864 343° North 164 189 8,000  Level Atlanta Center
08:07AM 36.4283 -81.6031 344° North 164 189 8,000  Level Atlanta Center
08:08AM 36.4703 -81.6197 342° North 164 189 8,000  Level Atlanta Center
08:09AM 36.5144 -81.6392 341° North 164 189 8,000  Level Atlanta Center
08:10AM 36.5606 -81.6531 346° North 164 189 8,000  Level Atlanta Center
08:11AM 36.6047 -81.6700 343° North 164 189 8,000  Level Atlanta Center
08:12AM 36.6511 -81.6892 342° North 164 189 8,000  Level Atlanta Center
08:13AM 36.6931 -81.7036 345° North 164 189 8,000  Level Atlanta Center
08:14AM 36.7372 -81.7206 343° North 164 189 8,000  Level Atlanta Center
08:15AM 36.7811 -81.7372 343° North 164 189 8,000  Level Atlanta Center
08:16AM 36.8253 -81.7542 343° North 164 189 8,000  Level Atlanta Center
08:17AM 36.8772 -81.7714 345° North 166 191 8,000  Level Indianapolis Center
08:19AM 36.9211 -81.7883 343° North 165 190 8,000  Level Indianapolis Center
08:20AM 36.9650 -81.8044 344° North 165 190 8,100  Climbing Indianapolis Center
08:21AM 37.0092 -81.8214 343° North 165 190 8,100  Level Indianapolis Center
08:22AM 37.0547 -81.8383 343° North 170 196 8,100  Level Indianapolis Center
08:23AM 37.1044 -81.8578 343° North 161 185 8,100  Level Indianapolis Center
08:24AM 37.1481 -81.8733 344° North 162 186 8,100  Level Indianapolis Center
08:25AM 37.1928 -81.8903 343° North 165 190 8,100  Level Indianapolis Center
08:26AM 37.2367 -81.9081 342° North 166 191 8,100  Level Indianapolis Center
08:27AM 37.2803 -81.9253 343° North 164 189 8,100  Level Indianapolis Center
08:28AM 37.3253 -81.9422 343° North 166 191 8,100  Level Indianapolis Center
08:29AM 37.3775 -81.9617 344° North 167 192 8,100  Level Indianapolis Center
08:30AM 37.4219 -81.9792 343° North 167 192 8,100  Level Indianapolis Center
08:31AM 37.4661 -81.9958 343° North 167 192 8,100  Level Indianapolis Center
08:32AM 37.5100 -82.0136 342° North 165 190 8,100  Level Indianapolis Center
08:33AM 37.5536 -82.0300 343° North 164 189 8,100  Level Indianapolis Center
08:34AM 37.5967 -82.0464 343° North 163 188 8,100  Level Indianapolis Center
08:35AM 37.6408 -82.0631 343° North 163 188 8,100  Level Indianapolis Center
08:36AM 37.6928 -82.0850 342° North 167 192 8,100  Level Indianapolis Center
08:37AM 37.7375 -82.1008 344° North 166 191 8,100  Level Indianapolis Center
08:38AM 37.7806 -82.1175 343° North 162 186 8,100  Level Indianapolis Center
08:39AM 37.8247 -82.1347 343° North 164 189 8,100 -60 Level Indianapolis Center
08:40AM 37.8736 -82.1531 344° North 167 192 8,000 -120 Descending Indianapolis Center
08:41AM 37.9139 -82.1697 342° North 167 192 7,900 -60 Descending Indianapolis Center
08:42AM 37.9656 -82.1889 344° North 165 190 7,900  Level Indianapolis Center
08:43AM 38.0097 -82.2064 343° North 166 191 7,900  Level Indianapolis Center
08:44AM 38.0547 -82.2233 343° North 167 192 7,900  Level Indianapolis Center
08:45AM 38.0989 -82.2403 343° North 167 192 7,900  Level Indianapolis Center
08:46AM 38.1408 -82.2583 341° North 170 196 7,900  Level Indianapolis Center
08:47AM 38.1856 -82.2756 343° North 167 192 7,900  Level Indianapolis Center
08:48AM 38.2403 -82.2958 344° North 170 196 7,900  Level Indianapolis Center
08:49AM 38.2853 -82.3136 343° North 169 194 7,900  Level Indianapolis Center
08:50AM 38.3314 -82.3317 343° North 171 197 7,900  Level Indianapolis Center
08:51AM 38.3753 -82.3503 342° North 168 193 7,900  Level Indianapolis Center
08:52AM 38.4208 -82.3669 344° North 168 193 7,900  Level Indianapolis Center
08:53AM 38.4661 -82.3858 342° North 169 194 7,900  Level Indianapolis Center
08:55AM 38.5122 -82.4047 342° North 172 198 7,900  Level Indianapolis Center
08:56AM 38.5575 -82.4219 343° North 170 196 7,900  Level Indianapolis Center
08:57AM 38.6125 -82.4439 343° North 172 198 7,900  Level Indianapolis Center
08:58AM 38.6581 -82.4628 342° North 170 196 7,900  Level Indianapolis Center
08:59AM 38.7036 -82.4808 343° North 171 197 7,900  Level Indianapolis Center
09:00AM 38.7503 -82.4997 342° North 174 200 7,900  Level Indianapolis Center
09:01AM 38.7964 -82.5167 344° North 174 200 7,900  Level Indianapolis Center
09:02AM 38.8433 -82.5356 343° North 175 201 7,900  Level Indianapolis Center
09:03AM 38.8897 -82.5544 342° North 175 201 8,000  Climbing Indianapolis Center
09:04AM 38.9364 -82.5731 343° North 175 201 8,000  Level Indianapolis Center
09:05AM 38.9919 -82.5956 343° North 175 201 8,000  Level Indianapolis Center
09:06AM 39.0386 -82.6150 342° North 176 203 8,000  Level Indianapolis Center
09:07AM 39.0850 -82.6336 343° North 174 200 8,000  Level Indianapolis Center
09:08AM 39.1317 -82.6525 343° North 176 203 8,000  Level Indianapolis Center
09:09AM 39.1814 -82.6728 342° North 175 201 8,000  Level Indianapolis Center
09:10AM 39.2289 -82.6908 344° North 176 203 8,000  Level Indianapolis Center
09:11AM 39.2767 -82.7106 342° North 178 205 8,000  Level Indianapolis Center
09:12AM 39.3242 -82.7294 343° North 177 204 8,000 -120 Level Indianapolis Center
09:12AM 39.3464 -82.7392 341° North 178 205 7,900  Descending Indianapolis Center
09:13AM 39.3714 -82.7492 343° North 177 204 8,000  Climbing Indianapolis Center
09:13AM 39.3931 -82.7603 338° Northwest 178 205 7,900  Descending Indianapolis Center
09:14AM 39.4278 -82.7719 345° North 179 206 8,000  Climbing Indianapolis Center
09:14AM 39.4442 -82.7794 341° North 178 205 7,900 -540 Descending Indianapolis Center
09:15AM 39.4764 -82.7917 344° North 182 209 7,500 -720 Descending Indianapolis Center
09:15AM 39.4953 -82.7986 344° North 187 215 7,200 -600 Descending Indianapolis Center
09:16AM 39.5269 -82.8122 342° North 187 215 6,900 -720 Descending Indianapolis Center
09:16AM 39.5439 -82.8203 340° North 190 219 6,500 -720 Descending Indianapolis Center
09:17AM 39.5767 -82.8328 344° North 186 214 6,200 -720 Descending Indianapolis Center
09:17AM 39.5928 -82.8422 336° Northwest 183 211 5,800 -780 Descending Indianapolis Center
09:18AM 39.6250 -82.8522 347° North 182 209 5,400 -1,020 Descending Indianapolis Center
09:18AM 39.6417 -82.8611 338° Northwest 181 208 4,800 -1,500 Descending Indianapolis Center
09:19AM 39.6744 -82.8719 346° North 183 211 3,900 -1,560 Descending Indianapolis Center
09:20AM 39.6969 -82.8808 343° North 215 247 3,100 -780 Descending Indianapolis Center
09:20AM 39.7203 -82.8975 331° Northwest 181 208 3,100 -420 Level Indianapolis Center
09:21AM 39.7433 -82.9053 345° North 184 212 2,700 -780 Descending Indianapolis Center
09:22AM 39.7892 -82.9078 358° North 185 213 2,200 -240 Descending Indianapolis Center
09:22AM 39.8178 -82.8714 44° Northeast 176 203 2,300 -600 Climbing Indianapolis Center
09:24AM 39.8356 -82.9019 307° West 149 171 1,000 -540 Descending Indianapolis Center
09:24AM 39.8125 -82.9214 213° Southwest 163 188 1,200 180 Climbing Indianapolis Center
09:26AM 39.8138 -82.9278 218° Southwest  Level Estimated